createdAt,value
2018-12-08T00:01:07.395Z,88.27
2018-12-08T00:03:37.016Z,87.67
2018-12-08T00:06:06.716Z,78.80
2018-12-08T00:08:36.642Z,79.97
2018-12-08T00:11:06.466Z,73.37
2018-12-08T00:13:36.035Z,77.90
2018-12-08T00:16:06.884Z,78.33
2018-12-08T00:18:37.220Z,80.97
2018-12-08T00:21:06.972Z,78.93
2018-12-08T00:23:36.652Z,74.87
2018-12-08T00:26:06.492Z,74.53
2018-12-08T00:28:36.476Z,70.13
2018-12-08T00:31:16.933Z,66.07
2018-12-08T00:33:46.665Z,65.00
2018-12-08T00:36:16.457Z,63.77
2018-12-08T00:38:46.139Z,67.63
2018-12-08T00:41:15.772Z,61.77
2018-12-08T00:43:45.874Z,63.00
2018-12-08T00:46:21.971Z,69.30
2018-12-08T00:48:51.898Z,69.17
2018-12-08T00:51:21.484Z,78.00
2018-12-08T00:53:51.097Z,78.43
2018-12-08T00:56:21.118Z,74.20
2018-12-08T00:58:50.715Z,73.60
2018-12-08T01:01:20.420Z,78.37
2018-12-08T01:03:49.930Z,83.63
2018-12-08T01:06:19.743Z,81.03
2018-12-08T01:08:49.267Z,71.53
2018-12-08T01:11:19.048Z,72.63
2018-12-08T01:13:49.965Z,68.50
2018-12-08T01:16:19.708Z,84.52
2018-12-08T01:18:49.248Z,75.83
2018-12-08T01:21:19.066Z,73.80
2018-12-08T01:23:48.732Z,72.40
2018-12-08T01:26:18.372Z,78.10
2018-12-08T01:28:48.415Z,68.43
2018-12-08T01:31:17.951Z,64.13
2018-12-08T01:33:47.468Z,64.70
2018-12-08T01:36:17.307Z,64.17
2018-12-08T01:38:47.073Z,72.47
2018-12-08T01:41:17.018Z,76.40
2018-12-08T01:43:46.657Z,66.80
2018-12-08T01:46:16.347Z,69.00
2018-12-08T01:48:46.052Z,72.70
2018-12-08T01:51:15.874Z,72.70
2018-12-08T01:53:45.667Z,62.70
2018-12-08T01:56:15.491Z,69.67
2018-12-08T01:58:45.172Z,73.33
2018-12-08T02:01:15.720Z,73.33
2018-12-08T02:03:45.406Z,63.47
2018-12-08T02:06:14.865Z,72.87
2018-12-08T02:08:44.343Z,59.37
2018-12-08T02:11:16.047Z,55.03
2018-12-08T02:13:46.401Z,50.00
2018-12-08T02:16:15.992Z,56.80
2018-12-08T02:18:45.569Z,54.73
2018-12-08T02:21:15.024Z,60.07
2018-12-08T02:23:44.545Z,62.17
2018-12-08T02:26:14.245Z,61.27
2018-12-08T02:28:44.085Z,51.97
2018-12-08T02:31:13.715Z,56.73
2018-12-08T02:33:43.378Z,53.63
2018-12-08T02:36:13.242Z,65.47
2018-12-08T02:38:43.016Z,66.13
2018-12-08T02:41:12.575Z,62.03
2018-12-08T02:43:42.421Z,63.67
2018-12-08T02:46:12.096Z,66.87
2018-12-08T02:48:41.951Z,62.83
2018-12-08T02:51:11.469Z,70.27
2018-12-08T02:53:41.078Z,64.93
2018-12-08T02:56:10.876Z,71.27
2018-12-08T02:58:40.520Z,67.90
2018-12-08T03:01:10.183Z,67.60
2018-12-08T03:03:39.849Z,60.07
2018-12-08T03:06:09.731Z,67.27
2018-12-08T03:08:39.439Z,76.40
2018-12-08T03:11:09.149Z,71.20
2018-12-08T03:13:38.653Z,65.07
2018-12-08T03:16:08.555Z,60.83
2018-12-08T03:18:38.682Z,73.10
2018-12-08T03:21:09.084Z,68.83
2018-12-08T03:23:38.813Z,80.40
2018-12-08T03:26:08.327Z,65.17
2018-12-08T03:28:37.832Z,71.80
2018-12-08T03:31:07.778Z,68.27
2018-12-08T03:33:37.976Z,69.93
2018-12-08T03:36:07.547Z,52.50
2018-12-08T03:38:37.348Z,39.00
2018-12-08T03:41:07.207Z,19.37
2018-12-08T03:43:36.845Z,8.47
2018-12-08T03:46:06.614Z,5.97
2018-12-08T03:48:36.245Z,4.57
2018-12-08T03:51:06.280Z,3.70
2018-12-08T03:53:38.365Z,4.13
2018-12-08T03:56:07.936Z,2.90
2018-12-08T03:58:37.853Z,4.13
2018-12-08T04:01:07.554Z,5.40
2018-12-08T04:03:37.167Z,3.45
2018-12-08T04:06:06.877Z,1.53
2018-12-08T04:08:36.675Z,2.63
2018-12-08T04:11:06.808Z,1.90
2018-12-08T04:13:36.506Z,2.97
2018-12-08T04:16:06.278Z,2.83
2018-12-08T04:18:35.839Z,2.67
2018-12-08T04:21:05.679Z,2.93
2018-12-08T04:23:35.389Z,2.37
2018-12-08T04:26:04.989Z,2.17
2018-12-08T04:28:34.604Z,4.13
2018-12-08T04:31:04.091Z,3.00
2018-12-08T04:33:33.564Z,1.13
2018-12-08T04:36:03.298Z,2.27
2018-12-08T04:38:32.825Z,1.67
2018-12-08T04:41:02.507Z,1.80
2018-12-08T04:43:32.121Z,2.40
2018-12-08T04:46:01.966Z,2.57
2018-12-08T04:48:31.532Z,1.73
2018-12-08T04:51:01.394Z,5.53
2018-12-08T04:53:30.964Z,1.27
2018-12-08T04:56:00.572Z,2.07
2018-12-08T04:58:30.176Z,2.57
2018-12-08T05:00:59.777Z,2.07
2018-12-08T05:03:30.572Z,1.43
2018-12-08T05:06:00.477Z,2.20
2018-12-08T05:08:30.860Z,2.27
2018-12-08T05:11:00.905Z,2.03
2018-12-08T05:13:30.685Z,2.67
2018-12-08T05:16:00.301Z,1.40
2018-12-08T05:18:30.508Z,3.80
2018-12-08T05:21:00.524Z,2.90
2018-12-08T05:23:30.359Z,2.20
2018-12-08T05:26:00.163Z,2.97
2018-12-08T05:28:29.816Z,2.70
2018-12-08T05:30:59.691Z,2.90
2018-12-08T05:33:29.178Z,3.97
2018-12-08T05:35:58.904Z,2.30
2018-12-08T05:38:28.626Z,2.00
2018-12-08T05:40:58.819Z,1.93
2018-12-08T05:43:28.562Z,0.90
2018-12-08T05:45:58.175Z,2.93
2018-12-08T05:48:27.651Z,2.47
2018-12-08T05:50:57.320Z,5.30
2018-12-08T05:53:27.072Z,2.47
2018-12-08T05:55:56.819Z,3.15
2018-12-08T05:58:26.520Z,4.73
2018-12-08T06:00:56.026Z,4.43
2018-12-08T06:03:25.967Z,1.77
2018-12-08T06:05:55.519Z,5.17
2018-12-08T06:08:25.447Z,4.07
2018-12-08T06:10:55.153Z,2.13
2018-12-08T06:13:24.654Z,3.00
2018-12-08T06:15:54.394Z,1.33
2018-12-08T06:18:24.250Z,6.33
2018-12-08T06:20:53.779Z,2.87
2018-12-08T06:23:23.387Z,3.00
2018-12-08T06:25:53.357Z,3.43
2018-12-08T06:28:27.945Z,2.23
2018-12-08T06:30:57.569Z,4.07
2018-12-08T06:33:27.199Z,1.80
2018-12-08T06:35:57.100Z,1.70
2018-12-08T06:38:26.864Z,2.47
2018-12-08T06:40:56.607Z,3.17
2018-12-08T06:43:26.494Z,1.97
2018-12-08T06:45:56.336Z,1.50
2018-12-08T06:48:26.128Z,2.03
2018-12-08T06:50:55.877Z,2.45
2018-12-08T06:53:25.882Z,2.10
2018-12-08T06:55:56.537Z,3.53
2018-12-08T06:58:26.399Z,2.63
2018-12-08T07:00:55.982Z,2.93
2018-12-08T07:03:25.840Z,1.00
2018-12-08T07:05:55.586Z,1.97
2018-12-08T07:08:25.532Z,2.20
2018-12-08T07:10:55.376Z,2.23
2018-12-08T07:13:24.910Z,1.60
2018-12-08T07:15:54.487Z,4.23
2018-12-08T07:18:24.126Z,0.50
2018-12-08T07:20:53.793Z,1.57
2018-12-08T07:23:23.439Z,2.43
2018-12-08T07:25:53.235Z,2.43
2018-12-08T07:28:22.969Z,2.57
2018-12-08T07:30:52.811Z,2.10
2018-12-08T07:33:22.380Z,3.40
2018-12-08T07:35:51.880Z,2.60
2018-12-08T07:38:21.471Z,2.30
2018-12-08T07:40:51.146Z,1.70
2018-12-08T07:43:20.689Z,0.93
2018-12-08T07:45:50.412Z,2.70
2018-12-08T07:48:20.018Z,2.20
2018-12-08T07:50:50.345Z,2.43
2018-12-08T07:53:19.914Z,2.07
2018-12-08T07:55:49.569Z,2.07
2018-12-08T07:58:19.154Z,1.03
2018-12-08T08:00:49.049Z,2.47
2018-12-08T08:03:18.791Z,4.60
2018-12-08T08:05:48.419Z,2.03
2018-12-08T08:08:18.736Z,3.00
2018-12-08T08:10:48.554Z,2.50
2018-12-08T08:13:18.205Z,1.33
2018-12-08T08:15:47.977Z,5.43
2018-12-08T08:18:17.614Z,3.63
2018-12-08T08:20:47.160Z,3.43
2018-12-08T08:23:16.988Z,2.50
2018-12-08T08:25:47.338Z,3.08
2018-12-08T08:28:17.467Z,1.93
2018-12-08T08:30:47.037Z,1.97
2018-12-08T08:33:16.570Z,1.53
2018-12-08T08:35:46.405Z,2.93
2018-12-08T08:38:15.865Z,3.53
2018-12-08T08:40:45.596Z,3.70
2018-12-08T08:43:15.408Z,4.60
2018-12-08T08:45:45.208Z,4.43
2018-12-08T08:48:15.401Z,1.10
2018-12-08T08:50:45.347Z,1.63
2018-12-08T08:53:15.047Z,4.23
2018-12-08T08:55:44.752Z,3.53
2018-12-08T08:58:14.260Z,1.97
2018-12-08T09:00:43.948Z,3.57
2018-12-08T09:03:13.898Z,5.90
2018-12-08T09:05:43.484Z,2.77
2018-12-08T09:08:13.195Z,3.00
2018-12-08T09:10:42.716Z,1.63
2018-12-08T09:13:12.339Z,3.77
2018-12-08T09:15:42.967Z,5.47
2018-12-08T09:18:12.706Z,3.87
2018-12-08T09:20:42.573Z,3.83
2018-12-08T09:23:12.408Z,2.40
2018-12-08T09:25:42.107Z,2.67
2018-12-08T09:28:12.300Z,2.60
2018-12-08T09:30:41.920Z,2.83
2018-12-08T09:33:11.690Z,2.57
2018-12-08T09:35:41.357Z,3.57
2018-12-08T09:38:10.972Z,3.47
2018-12-08T09:40:40.645Z,1.63
2018-12-08T09:43:10.482Z,1.77
2018-12-08T09:45:41.890Z,2.67
2018-12-08T09:48:11.762Z,2.63
2018-12-08T09:50:41.270Z,2.90
2018-12-08T09:53:18.907Z,1.90
2018-12-08T09:55:48.797Z,2.63
2018-12-08T09:58:18.522Z,2.57
2018-12-08T10:00:48.282Z,2.53
2018-12-08T10:03:18.211Z,3.53
2018-12-08T10:05:47.693Z,3.43
2018-12-08T10:08:17.592Z,4.67
2018-12-08T10:10:48.278Z,5.07
2018-12-08T10:13:17.747Z,3.83
2018-12-08T10:15:47.597Z,2.07
2018-12-08T10:18:17.355Z,4.05
2018-12-08T10:20:46.912Z,3.17
2018-12-08T10:23:16.386Z,4.50
2018-12-08T10:25:46.060Z,1.97
2018-12-08T10:28:15.705Z,3.63
2018-12-08T10:30:46.493Z,2.63
2018-12-08T10:33:16.044Z,3.73
2018-12-08T10:35:45.719Z,5.70
2018-12-08T10:38:15.636Z,4.03
2018-12-08T10:40:45.135Z,3.10
2018-12-08T10:43:14.783Z,1.83
2018-12-08T10:45:44.585Z,3.70
2018-12-08T10:48:14.447Z,3.33
2018-12-08T10:50:48.288Z,4.07
2018-12-08T10:53:20.565Z,4.70
2018-12-08T10:55:50.156Z,3.87
2018-12-08T10:58:19.939Z,1.80
2018-12-08T11:00:54.742Z,3.33
2018-12-08T11:03:28.235Z,2.70
2018-12-08T11:05:58.789Z,2.77
2018-12-08T11:08:29.888Z,1.82
2018-12-08T11:10:59.445Z,3.57
2018-12-08T11:13:29.127Z,3.33
2018-12-08T11:15:59.728Z,2.87
2018-12-08T11:18:29.779Z,5.80
2018-12-08T11:20:59.639Z,6.13
2018-12-08T11:23:29.160Z,3.27
2018-12-08T11:25:59.775Z,6.40
2018-12-08T11:28:29.532Z,6.17
2018-12-08T11:30:59.769Z,3.60
2018-12-08T11:33:29.333Z,3.10
2018-12-08T11:35:59.189Z,3.30
2018-12-08T11:38:28.940Z,2.77
2018-12-08T11:40:58.679Z,2.33
2018-12-08T11:43:28.328Z,2.03
2018-12-08T11:45:58.888Z,3.47
2018-12-08T11:48:28.372Z,3.50
2018-12-08T11:50:58.131Z,2.53
2018-12-08T11:53:27.891Z,5.23
2018-12-08T11:55:57.396Z,3.47
2018-12-08T11:58:27.109Z,2.60
2018-12-08T12:00:56.882Z,4.28
2018-12-08T12:03:26.667Z,2.80
2018-12-08T12:05:56.422Z,4.03
2018-12-08T12:08:26.139Z,1.73
2018-12-08T12:10:56.046Z,4.80
2018-12-08T12:13:25.905Z,4.40
2018-12-08T12:15:55.499Z,4.13
2018-12-08T12:18:24.994Z,4.17
2018-12-08T12:20:54.593Z,5.40
2018-12-08T12:23:24.196Z,3.37
2018-12-08T12:25:54.496Z,4.03
2018-12-08T12:28:24.395Z,6.70
2018-12-08T12:30:54.517Z,4.87
2018-12-08T12:33:24.072Z,1.87
2018-12-08T12:35:54.114Z,2.40
2018-12-08T12:38:23.599Z,5.83
2018-12-08T12:40:53.329Z,4.57
2018-12-08T12:43:22.967Z,6.77
2018-12-08T12:45:52.634Z,4.03
2018-12-08T12:48:22.484Z,3.97
2018-12-08T12:50:52.130Z,3.50
2018-12-08T12:53:22.908Z,5.97
2018-12-08T12:55:52.827Z,6.63
2018-12-08T12:58:22.633Z,6.53
2018-12-08T13:00:52.261Z,4.57
2018-12-08T13:03:22.260Z,3.53
2018-12-08T13:05:51.855Z,3.10
2018-12-08T13:08:21.502Z,4.42
2018-12-08T13:10:51.084Z,5.57
2018-12-08T13:13:20.809Z,3.87
2018-12-08T13:15:50.513Z,5.87
2018-12-08T13:18:20.110Z,5.40
2018-12-08T13:20:49.765Z,3.27
2018-12-08T13:23:19.660Z,7.03
2018-12-08T13:25:49.338Z,3.77
2018-12-08T13:28:18.999Z,4.43
2018-12-08T13:30:48.798Z,3.40
2018-12-08T13:33:18.524Z,4.83
2018-12-08T13:35:57.262Z,6.30
2018-12-08T13:38:27.319Z,4.70
2018-12-08T13:40:57.015Z,3.20
2018-12-08T13:43:26.661Z,7.83
2018-12-08T13:45:56.136Z,4.92
2018-12-08T13:48:27.108Z,7.63
2018-12-08T13:50:57.079Z,3.17
2018-12-08T13:53:26.917Z,5.43
2018-12-08T13:55:56.490Z,6.43
2018-12-08T13:58:27.146Z,5.40
2018-12-08T14:00:56.842Z,3.97
2018-12-08T14:03:26.469Z,4.43
2018-12-08T14:05:56.372Z,4.97
2018-12-08T14:08:26.197Z,3.83
2018-12-08T14:10:55.792Z,5.93
2018-12-08T14:13:25.726Z,2.73
2018-12-08T14:15:55.327Z,1.80
2018-12-08T14:18:25.307Z,2.87
2018-12-08T14:20:54.963Z,4.30
2018-12-08T14:23:24.652Z,5.33
2018-12-08T14:25:54.439Z,4.47
2018-12-08T14:28:24.320Z,3.00
2018-12-08T14:30:54.092Z,4.33
2018-12-08T14:33:23.862Z,3.60
2018-12-08T14:35:53.870Z,3.47
2018-12-08T14:38:23.529Z,4.53
2018-12-08T14:40:53.379Z,1.13
2018-12-08T14:43:23.069Z,2.47
2018-12-08T14:45:52.749Z,1.77
2018-12-08T14:48:22.490Z,2.57
2018-12-08T14:50:52.154Z,3.40
2018-12-08T14:53:22.295Z,3.35
2018-12-08T14:55:52.048Z,6.03
2018-12-08T14:58:21.789Z,3.43
2018-12-08T15:00:51.247Z,3.80
2018-12-08T15:03:20.868Z,6.03
2018-12-08T15:05:50.508Z,5.20
2018-12-08T15:08:20.064Z,3.23
2018-12-08T15:10:49.786Z,3.93
2018-12-08T15:13:19.307Z,2.73
2018-12-08T15:15:49.223Z,3.10
2018-12-08T15:18:19.045Z,3.73
2018-12-08T15:20:48.601Z,3.20
2018-12-08T15:23:18.119Z,7.73
2018-12-08T15:25:47.848Z,4.07
2018-12-08T15:28:17.429Z,3.62
2018-12-08T15:30:47.865Z,3.93
2018-12-08T15:33:17.576Z,3.20
2018-12-08T15:35:47.292Z,3.37
2018-12-08T15:38:16.800Z,2.87
2018-12-08T15:40:46.335Z,4.47
2018-12-08T15:43:16.018Z,3.77
2018-12-08T15:45:45.938Z,4.00
2018-12-08T15:48:15.645Z,5.13
2018-12-08T15:50:45.461Z,4.63
2018-12-08T15:53:15.164Z,3.20
2018-12-08T15:55:45.815Z,3.90
2018-12-08T15:58:15.254Z,3.93
2018-12-08T16:00:44.531Z,4.83
2018-12-08T16:03:14.217Z,3.07
2018-12-08T16:05:44.752Z,1.70
2018-12-08T16:08:14.357Z,2.33
2018-12-08T16:10:43.837Z,1.40
2018-12-08T16:13:13.237Z,2.80
2018-12-08T16:15:44.061Z,6.03
2018-12-08T16:18:14.020Z,3.97
2018-12-08T16:20:43.596Z,3.62
2018-12-08T16:23:13.350Z,2.97
2018-12-08T16:25:49.614Z,4.43
2018-12-08T16:28:19.176Z,3.17
2018-12-08T16:30:48.894Z,2.50
2018-12-08T16:33:18.629Z,3.17
2018-12-08T16:35:48.267Z,1.27
2018-12-08T16:38:18.019Z,3.30
2018-12-08T16:40:47.528Z,3.30
2018-12-08T16:43:17.160Z,4.63
2018-12-08T16:45:47.868Z,4.20
2018-12-08T16:48:17.663Z,2.67
2018-12-08T16:50:47.295Z,4.50
2018-12-08T16:53:16.874Z,2.43
2018-12-08T16:55:47.121Z,2.17
2018-12-08T16:58:16.724Z,3.47
2018-12-08T17:00:46.587Z,2.23
2018-12-08T17:03:16.281Z,3.60
2018-12-08T17:05:45.903Z,4.47
2018-12-08T17:08:15.661Z,6.73
2018-12-08T17:10:45.535Z,3.60
2018-12-08T17:13:15.204Z,1.63
2018-12-08T17:15:44.722Z,2.60
2018-12-08T17:18:15.297Z,2.10
2018-12-08T17:20:45.045Z,3.03
2018-12-08T17:23:14.715Z,5.50
2018-12-08T17:25:44.506Z,4.30
2018-12-08T17:28:14.193Z,1.70
2018-12-08T17:30:44.018Z,3.52
2018-12-08T17:33:13.861Z,4.87
2018-12-08T17:35:43.642Z,2.77
2018-12-08T17:38:13.417Z,4.23
2018-12-08T17:40:43.046Z,4.50
2018-12-08T17:43:12.867Z,2.53
2018-12-08T17:45:42.567Z,1.33
2018-12-08T17:48:12.284Z,5.30
2018-12-08T17:50:41.945Z,2.90
2018-12-08T17:53:11.408Z,2.17
2018-12-08T17:55:41.124Z,3.10
2018-12-08T17:58:10.843Z,2.73
2018-12-08T18:00:40.623Z,1.43
2018-12-08T18:03:10.412Z,3.13
2018-12-08T18:05:41.196Z,1.83
2018-12-08T18:08:10.969Z,2.63
2018-12-08T18:10:40.586Z,4.33
2018-12-08T18:13:10.593Z,1.53
2018-12-08T18:15:40.317Z,4.43
2018-12-08T18:18:10.028Z,1.40
2018-12-08T18:20:40.532Z,3.03
2018-12-08T18:23:10.247Z,2.90
2018-12-08T18:25:39.920Z,2.22
2018-12-08T18:28:09.775Z,2.97
2018-12-08T18:30:39.520Z,3.37
2018-12-08T18:33:09.203Z,2.77
2018-12-08T18:35:38.737Z,4.13
2018-12-08T18:38:08.560Z,2.30
2018-12-08T18:40:38.253Z,4.77
2018-12-08T18:43:07.978Z,5.63
2018-12-08T18:45:37.587Z,4.20
2018-12-08T18:48:07.056Z,5.33
2018-12-08T18:50:37.097Z,4.23
2018-12-08T18:53:06.886Z,3.73
2018-12-08T18:55:36.878Z,3.00
2018-12-08T18:58:06.498Z,5.37
2018-12-08T19:00:36.192Z,6.93
2018-12-08T19:03:06.063Z,3.87
2018-12-08T19:05:36.195Z,5.27
2018-12-08T19:08:06.503Z,7.90
2018-12-08T19:10:36.359Z,6.73
2018-12-08T19:13:06.979Z,6.83
2018-12-08T19:15:37.309Z,5.17
2018-12-08T19:18:07.429Z,4.97
2018-12-08T19:20:37.530Z,4.90
2018-12-08T19:23:07.468Z,4.43
2018-12-08T19:25:37.480Z,5.70
2018-12-08T19:28:07.169Z,5.37
2018-12-08T19:30:36.956Z,5.67
2018-12-08T19:33:14.334Z,5.77
2018-12-08T19:35:38.572Z,4.50
2018-12-08T19:38:08.506Z,4.30
2018-12-08T19:40:38.384Z,4.43
2018-12-08T19:43:08.216Z,6.77
2018-12-08T19:45:38.111Z,6.17
2018-12-08T19:48:07.824Z,4.27
2018-12-08T19:50:37.356Z,6.87
2018-12-08T19:53:07.072Z,5.15
2018-12-08T19:55:36.781Z,4.33
2018-12-08T19:58:06.782Z,2.30
2018-12-08T20:00:36.494Z,3.37
2018-12-08T20:03:06.402Z,2.57
2018-12-08T20:05:36.316Z,2.67
2018-12-08T20:08:06.217Z,2.40
2018-12-08T20:10:35.850Z,2.33
2018-12-08T20:13:05.749Z,2.37
2018-12-08T20:15:35.375Z,2.57
2018-12-08T20:18:04.952Z,0.97
2018-12-08T20:20:35.283Z,4.77
2018-12-08T20:23:04.865Z,3.70
2018-12-08T20:25:34.591Z,1.53
2018-12-08T20:28:04.679Z,2.53
2018-12-08T20:30:34.257Z,2.77
2018-12-08T20:33:04.274Z,2.47
2018-12-08T20:35:34.030Z,1.80
2018-12-08T20:38:03.870Z,3.57
2018-12-08T20:40:33.684Z,2.97
2018-12-08T20:43:03.288Z,3.13
2018-12-08T20:45:33.313Z,1.98
2018-12-08T20:48:03.152Z,1.77
2018-12-08T20:50:32.824Z,2.40
2018-12-08T20:53:02.498Z,2.60
2018-12-08T20:55:32.437Z,1.50
2018-12-08T20:58:02.092Z,1.47
2018-12-08T21:00:31.825Z,1.30
2018-12-08T21:03:01.754Z,2.07
2018-12-08T21:05:32.418Z,1.80
2018-12-08T21:08:02.206Z,2.27
2018-12-08T21:10:32.081Z,2.57
2018-12-08T21:13:01.700Z,1.50
2018-12-08T21:15:31.385Z,1.97
2018-12-08T21:18:00.878Z,2.57
2018-12-08T21:20:30.393Z,1.93
2018-12-08T21:23:00.118Z,1.03
2018-12-08T21:25:29.893Z,3.23
2018-12-08T21:27:59.404Z,3.93
2018-12-08T21:30:29.484Z,2.20
2018-12-08T21:32:59.295Z,1.80
2018-12-08T21:35:29.123Z,2.73
2018-12-08T21:37:58.897Z,2.25
2018-12-08T21:40:29.741Z,2.77
2018-12-08T21:42:59.651Z,2.60
2018-12-08T21:45:29.551Z,2.40
2018-12-08T21:47:59.542Z,3.07
2018-12-08T21:50:29.330Z,2.47
2018-12-08T21:52:58.994Z,3.30
2018-12-08T21:55:29.127Z,2.83
2018-12-08T21:57:59.121Z,2.43
2018-12-08T22:00:28.632Z,3.50
2018-12-08T22:02:58.099Z,3.50
2018-12-08T22:05:28.237Z,2.53
2018-12-08T22:07:58.145Z,5.40
2018-12-08T22:10:28.020Z,5.67
2018-12-08T22:12:57.671Z,4.60
2018-12-08T22:15:27.429Z,2.93
2018-12-08T22:17:57.174Z,6.87
2018-12-08T22:20:27.168Z,3.87
2018-12-08T22:22:56.945Z,3.73
2018-12-08T22:25:27.658Z,3.37
2018-12-08T22:27:57.508Z,3.30
2018-12-08T22:30:27.419Z,5.67
2018-12-08T22:32:57.310Z,2.98
2018-12-08T22:35:27.032Z,4.13
2018-12-08T22:37:57.032Z,2.30
2018-12-08T22:40:26.861Z,2.43
2018-12-08T22:42:56.869Z,3.27
2018-12-08T22:45:26.521Z,2.70
2018-12-08T22:47:56.424Z,2.52
2018-12-08T22:50:26.305Z,3.67
2018-12-08T22:52:56.138Z,1.93
2018-12-08T22:55:26.138Z,3.10
2018-12-08T22:57:55.737Z,1.90
2018-12-08T23:00:43.376Z,3.73
2018-12-08T23:03:14.905Z,2.90
2018-12-08T23:05:45.021Z,2.27
2018-12-08T23:08:14.965Z,2.43
2018-12-08T23:10:44.976Z,3.73
2018-12-08T23:13:14.745Z,4.87
2018-12-08T23:15:44.596Z,4.27
2018-12-08T23:18:14.328Z,2.03
2018-12-08T23:20:44.137Z,2.70
2018-12-08T23:23:13.740Z,2.47
2018-12-08T23:25:44.173Z,3.00
2018-12-08T23:28:14.448Z,2.03
2018-12-08T23:30:44.395Z,2.73
2018-12-08T23:33:13.992Z,4.23
2018-12-08T23:35:43.828Z,3.60
2018-12-08T23:38:13.541Z,4.57
2018-12-08T23:40:43.025Z,5.47
2018-12-08T23:43:12.630Z,5.17
2018-12-08T23:45:42.587Z,3.70
2018-12-08T23:48:12.317Z,2.60
2018-12-08T23:50:42.039Z,1.73
2018-12-08T23:53:12.326Z,3.60
2018-12-08T23:55:42.736Z,6.43
2018-12-08T23:58:12.247Z,2.73
